createdAt,value
2017-08-02T05:56:53.088Z,67.2
2017-08-02T05:57:55.554Z,68.3
2017-08-02T05:58:57.998Z,68.1
2017-08-02T06:00:00.110Z,68.1
2017-08-02T06:01:02.539Z,68.1
2017-08-02T06:02:05.316Z,68.1
2017-08-02T06:03:07.773Z,68.1
2017-08-02T06:04:09.854Z,68.2
2017-08-02T06:05:12.273Z,68.1
2017-08-02T06:06:14.729Z,68.2
2017-08-02T06:07:16.810Z,68.2
2017-08-02T06:08:19.240Z,68.3
2017-08-02T06:09:21.686Z,68.1
2017-08-02T06:10:23.783Z,68.2
2017-08-02T06:11:25.910Z,68.2
2017-08-02T06:12:28.001Z,68.1
2017-08-02T06:13:30.125Z,67.9
2017-08-02T06:14:32.905Z,68
2017-08-02T06:15:35.003Z,68
2017-08-02T06:16:37.102Z,68.1
2017-08-02T06:17:39.533Z,68
2017-08-02T06:18:41.955Z,68
2017-08-02T06:19:44.052Z,68
2017-08-02T06:20:46.508Z,67.9
2017-08-02T06:21:48.978Z,67.8
2017-08-02T06:22:51.068Z,67.9
2017-08-02T06:23:53.142Z,67.7
2017-08-02T06:24:55.248Z,67.7
2017-08-02T06:25:57.689Z,67.7
2017-08-02T06:27:00.117Z,67.7
2017-08-02T06:28:02.209Z,67.7
2017-08-02T06:29:04.980Z,67.7
2017-08-02T06:30:07.419Z,67.6
2017-08-02T06:31:09.841Z,67.5
2017-08-02T06:32:11.954Z,67.5
2017-08-02T06:33:14.084Z,67.6
2017-08-02T06:34:16.192Z,67.4
2017-08-02T06:35:18.294Z,67.3
2017-08-02T06:36:20.402Z,67.5
2017-08-02T06:37:22.839Z,67.5
2017-08-02T06:38:25.631Z,67.5
2017-08-02T06:39:27.741Z,67.5
2017-08-02T06:40:29.831Z,67.6
2017-08-02T06:41:32.270Z,67.6
2017-08-02T06:42:34.359Z,67.5
2017-08-02T06:43:37.144Z,67.6
2017-08-02T06:44:39.270Z,67.6
2017-08-02T06:45:41.693Z,67.6
2017-08-02T06:46:44.133Z,67.6
2017-08-02T06:47:46.227Z,67.5
2017-08-02T06:48:48.663Z,67.5
2017-08-02T06:49:50.773Z,67.4
2017-08-02T06:50:52.878Z,67.3
2017-08-02T06:51:55.310Z,67.3
2017-08-02T06:52:57.394Z,67.4
2017-08-02T06:53:59.841Z,67.3
2017-08-02T06:55:02.271Z,67.1
2017-08-02T06:56:04.702Z,67.1
2017-08-02T06:57:06.811Z,67.3
2017-08-02T06:58:08.905Z,67.1
2017-08-02T06:59:11.331Z,67.2
2017-08-02T07:00:13.421Z,67.1
2017-08-02T07:01:15.514Z,67.1
2017-08-02T07:02:17.617Z,67
2017-08-02T07:03:19.696Z,67.1
2017-08-02T07:04:22.129Z,67
2017-08-02T07:05:24.226Z,67
2017-08-02T07:06:26.650Z,67
2017-08-02T07:07:28.760Z,66.9
2017-08-02T07:08:30.853Z,66.6
2017-08-02T07:09:33.316Z,66.7
2017-08-02T07:10:35.409Z,66.7
2017-08-02T07:11:37.834Z,66.8
2017-08-02T07:12:39.936Z,66.8
2017-08-02T07:13:42.380Z,67
2017-08-02T07:14:44.478Z,67
2017-08-02T07:15:46.628Z,67
2017-08-02T07:16:49.064Z,67
2017-08-02T07:17:51.160Z,66.6
2017-08-02T07:18:53.270Z,66.6
2017-08-02T07:19:55.685Z,66.7
2017-08-02T07:20:58.113Z,66.7
2017-08-02T07:22:00.207Z,66.7
2017-08-02T07:23:02.298Z,66.6
2017-08-02T07:24:04.774Z,66.4
2017-08-02T07:25:06.866Z,66.4
2017-08-02T07:26:08.987Z,66.4
2017-08-02T07:27:11.076Z,66.3
2017-08-02T07:28:13.156Z,66.3
2017-08-02T07:29:15.600Z,66.3
2017-08-02T07:30:18.029Z,66.3
2017-08-02T07:31:20.128Z,66.3
2017-08-02T07:32:22.223Z,66.4
2017-08-02T07:33:24.656Z,66.4
2017-08-02T07:34:27.090Z,66.3
2017-08-02T07:35:29.170Z,66.3
2017-08-02T07:36:31.271Z,66.2
2017-08-02T07:37:33.376Z,66.1
2017-08-02T07:38:35.807Z,66.1
2017-08-02T07:39:37.898Z,66
2017-08-02T07:40:40.348Z,66
2017-08-02T07:41:42.467Z,66.1
2017-08-02T07:42:44.554Z,66
2017-08-02T07:43:46.637Z,66
2017-08-02T07:44:49.422Z,65.8
2017-08-02T07:45:51.509Z,65.8
2017-08-02T07:46:53.587Z,65.6
2017-08-02T07:47:55.674Z,65.5
2017-08-02T07:48:57.770Z,65.4
2017-08-02T07:50:00.561Z,65.2
2017-08-02T07:51:53.970Z,65.2
2017-08-02T07:52:56.060Z,65.3
2017-08-02T07:53:58.180Z,65.1
2017-08-02T07:55:00.622Z,65
2017-08-02T07:56:04.080Z,65
2017-08-02T07:57:06.178Z,64.9
2017-08-02T07:58:08.270Z,64.7
2017-08-02T07:59:10.378Z,64.8
2017-08-02T08:00:12.821Z,64.9
2017-08-02T08:01:15.262Z,65.1
2017-08-02T08:02:17.788Z,65.1
2017-08-02T08:03:19.871Z,65.1
2017-08-02T08:04:22.304Z,65.1
2017-08-02T08:05:24.388Z,65.2
2017-08-02T08:06:26.486Z,65.2
2017-08-02T08:07:28.563Z,65.2
2017-08-02T08:08:30.649Z,65.2
2017-08-02T08:09:33.106Z,65.2
2017-08-02T08:10:35.194Z,65.2
2017-08-02T08:11:37.636Z,65.1
2017-08-02T08:12:39.741Z,64.9
2017-08-02T08:13:42.174Z,64.8
2017-08-02T08:14:44.635Z,64.7
2017-08-02T08:15:46.722Z,64.9
2017-08-02T08:16:48.815Z,64.9
2017-08-02T08:17:51.256Z,64.9
2017-08-02T08:18:53.326Z,64.9
2017-08-02T08:19:55.764Z,65
2017-08-02T08:20:58.202Z,65
2017-08-02T08:22:00.657Z,65
2017-08-02T08:23:02.753Z,65
2017-08-02T08:24:04.840Z,65.1
2017-08-02T08:25:07.283Z,64.9
2017-08-02T08:26:09.383Z,65
2017-08-02T08:27:11.822Z,65
2017-08-02T08:28:13.926Z,64.9
2017-08-02T08:29:16.033Z,64.8
2017-08-02T08:30:18.122Z,64.6
2017-08-02T08:31:20.224Z,64.1
2017-08-02T08:32:22.314Z,63.8
2017-08-02T08:33:24.750Z,63.5
2017-08-02T08:34:26.844Z,63.7
2017-08-02T08:35:28.932Z,63.9
2017-08-02T08:36:31.369Z,63.9
2017-08-02T08:37:33.466Z,63.9
2017-08-02T08:38:35.888Z,63.9
2017-08-02T08:39:38.319Z,63.8
2017-08-02T08:40:40.406Z,63.9
2017-08-02T08:41:42.493Z,63.9
2017-08-02T08:42:44.932Z,63.6
2017-08-02T08:43:47.009Z,63.5
2017-08-02T08:44:49.468Z,63.4
2017-08-02T08:45:51.904Z,63.4
2017-08-02T08:46:53.994Z,63.2
2017-08-02T08:47:56.442Z,63.1
2017-08-02T08:48:58.539Z,62.9
2017-08-02T08:50:00.623Z,63
2017-08-02T08:51:03.069Z,63
2017-08-02T08:52:05.867Z,63
2017-08-02T08:53:07.967Z,63.2
2017-08-02T08:54:10.058Z,63.2
2017-08-02T08:55:12.157Z,63.2
2017-08-02T08:56:14.587Z,63.2
2017-08-02T08:57:16.688Z,63
2017-08-02T08:58:19.459Z,62.8
2017-08-02T08:59:21.577Z,62.9
2017-08-02T09:00:24.354Z,63
2017-08-02T09:01:26.779Z,63.1
2017-08-02T09:02:28.869Z,63.1
2017-08-02T09:03:30.968Z,63
2017-08-02T09:04:33.057Z,62.9
2017-08-02T09:05:35.157Z,63.1
2017-08-02T09:06:37.245Z,63
2017-08-02T09:07:39.350Z,63.1
2017-08-02T09:08:41.441Z,62.9
2017-08-02T09:09:43.545Z,62.8
2017-08-02T09:10:45.955Z,62.9
2017-08-02T09:11:48.039Z,62.9
2017-08-02T09:12:50.140Z,62.9
2017-08-02T09:13:52.584Z,62.6
2017-08-02T09:14:54.675Z,62.5
2017-08-02T09:15:56.763Z,62.4
2017-08-02T09:16:58.873Z,62.5
2017-08-02T09:18:01.308Z,62.5
2017-08-02T09:19:04.074Z,62.4
2017-08-02T09:20:06.180Z,62
2017-08-02T09:21:08.632Z,61.9
2017-08-02T09:22:10.732Z,61.7
2017-08-02T09:23:13.169Z,61.3
2017-08-02T09:24:15.268Z,61.3
2017-08-02T09:25:17.384Z,61.3
2017-08-02T09:26:19.470Z,61.3
2017-08-02T09:27:22.238Z,61.2
2017-08-02T09:28:24.329Z,61.1
2017-08-02T09:29:27.110Z,61
2017-08-02T09:30:29.543Z,60.9
2017-08-02T09:31:31.647Z,60.9
2017-08-02T09:32:34.110Z,60.8
2017-08-02T09:33:36.563Z,60.9
2017-08-02T09:34:38.994Z,60.6
2017-08-02T09:35:41.438Z,60.7
2017-08-02T09:36:43.523Z,60.7
2017-08-02T09:37:45.976Z,60.8
2017-08-02T09:38:48.433Z,60.8
2017-08-02T09:39:50.544Z,60.7
2017-08-02T09:40:53.019Z,60.3
2017-08-02T09:41:55.106Z,60.1
2017-08-02T09:42:57.205Z,60
2017-08-02T09:43:59.651Z,60
2017-08-02T09:45:02.103Z,60
2017-08-02T09:46:04.194Z,60.3
2017-08-02T09:47:06.624Z,60
2017-08-02T09:48:08.719Z,59.7
2017-08-02T09:49:10.824Z,59.5
2017-08-02T09:50:13.286Z,59.2
2017-08-02T09:51:15.378Z,59.4
2017-08-02T09:52:17.487Z,59.6
2017-08-02T09:53:20.616Z,59.7
2017-08-02T09:54:22.719Z,59.4
2017-08-02T09:55:24.818Z,58.9
2017-08-02T09:56:26.935Z,58.9
2017-08-02T09:57:29.058Z,59
2017-08-02T09:58:31.503Z,59
2017-08-02T09:59:33.607Z,59.1
2017-08-02T10:00:36.076Z,59.1
2017-08-02T10:01:38.206Z,59.2
2017-08-02T10:02:40.311Z,59.2
2017-08-02T10:03:42.758Z,59.2
2017-08-02T10:04:45.210Z,59
2017-08-02T10:05:47.309Z,58.5
2017-08-02T10:06:49.429Z,57.9
2017-08-02T10:07:51.536Z,58
2017-08-02T10:08:53.629Z,58
2017-08-02T10:09:55.735Z,57.8
2017-08-02T10:10:57.840Z,57.6
2017-08-02T10:11:59.939Z,57.7
2017-08-02T10:13:02.066Z,57.6
2017-08-02T10:14:04.159Z,57.5
2017-08-02T10:15:06.292Z,57.2
2017-08-02T10:16:08.755Z,56.8
2017-08-02T10:17:10.859Z,56.4
2017-08-02T10:18:12.976Z,56
2017-08-02T10:19:15.416Z,55.5
2017-08-02T10:20:17.537Z,55.4
2017-08-02T10:21:20.336Z,55.3
2017-08-02T10:22:22.419Z,55.3
2017-08-02T10:23:24.542Z,55.2
2017-08-02T10:24:26.647Z,55.1
2017-08-02T10:25:29.100Z,55
2017-08-02T10:26:31.214Z,54.8
2017-08-02T10:27:33.321Z,54.8
2017-08-02T10:28:35.782Z,54.7
2017-08-02T10:29:37.888Z,54.9
2017-08-02T10:30:40.338Z,54.9
2017-08-02T10:31:42.762Z,55.2
2017-08-02T10:32:44.885Z,55.4
2017-08-02T10:33:47.000Z,55.6
2017-08-02T10:34:49.104Z,55.6
2017-08-02T10:35:51.556Z,55.8
2017-08-02T10:36:53.661Z,55.8
2017-08-02T10:37:55.762Z,55.6
2017-08-02T10:38:57.857Z,55.6
2017-08-02T10:39:59.965Z,55.6
2017-08-02T10:41:02.087Z,55.7
2017-08-02T10:42:04.176Z,55.8
2017-08-02T10:43:06.293Z,55.8
2017-08-02T10:44:08.416Z,55.6
2017-08-02T10:45:10.543Z,55.3
2017-08-02T10:46:12.639Z,55.2
2017-08-02T10:47:15.078Z,55.1
2017-08-02T10:48:17.532Z,55.2
2017-08-02T10:49:19.625Z,55.2
2017-08-02T10:50:21.732Z,55.5
2017-08-02T10:51:23.839Z,55.6
2017-08-02T10:52:25.952Z,55.4
2017-08-02T10:53:28.398Z,55.5
2017-08-02T10:54:30.491Z,55.4
2017-08-02T10:55:33.294Z,55.5
2017-08-02T10:56:35.403Z,55.6
2017-08-02T10:57:37.843Z,55.5
2017-08-02T10:58:39.957Z,55.3
2017-08-02T10:59:42.057Z,55
2017-08-02T11:00:44.528Z,54.8
2017-08-02T11:01:46.627Z,54.7
2017-08-02T11:02:49.068Z,54.6
2017-08-02T11:03:51.527Z,54.7
2017-08-02T11:04:53.613Z,54.8
2017-08-02T11:05:55.721Z,54.9
2017-08-02T11:06:57.821Z,55.2
2017-08-02T11:07:59.932Z,55.4
2017-08-02T11:09:02.418Z,55.4
2017-08-02T11:10:04.842Z,55.3
2017-08-02T11:11:07.284Z,55.2
2017-08-02T11:12:09.381Z,54.9
2017-08-02T11:13:11.472Z,54.6
2017-08-02T11:14:13.933Z,54.4
2017-08-02T11:15:16.025Z,54.6
2017-08-02T11:16:18.462Z,54.7
2017-08-02T11:17:20.573Z,54.5
2017-08-02T11:18:23.380Z,54.7
2017-08-02T11:19:25.833Z,54.6
2017-08-02T11:20:28.261Z,54.4
2017-08-02T11:21:30.377Z,54.2
2017-08-02T11:22:32.810Z,54.2
2017-08-02T11:23:34.923Z,54
2017-08-02T11:24:37.375Z,53.9
2017-08-02T11:25:39.492Z,53.6
2017-08-02T11:26:41.955Z,53.3
2017-08-02T11:27:44.082Z,53.2
2017-08-02T11:28:46.536Z,53.1
2017-08-02T11:29:48.652Z,53
2017-08-02T11:30:51.100Z,53
2017-08-02T11:31:53.218Z,53.1
2017-08-02T11:32:55.338Z,53.1
2017-08-02T11:33:57.445Z,53.1
2017-08-02T11:34:59.548Z,52.9
2017-08-02T11:36:01.995Z,52.8
2017-08-02T11:37:04.095Z,52.5
2017-08-02T11:38:06.555Z,52.7
2017-08-02T11:39:08.660Z,52.8
2017-08-02T11:40:11.454Z,52.9
2017-08-02T11:41:13.556Z,52.9
2017-08-02T11:42:15.652Z,52.8
2017-08-02T11:43:18.460Z,52.9
2017-08-02T11:44:20.902Z,52.9
2017-08-02T11:45:23.338Z,52.9
2017-08-02T11:46:25.451Z,52.8
2017-08-02T11:47:27.878Z,52.9
2017-08-02T11:48:29.982Z,53
2017-08-02T11:49:32.107Z,52.9
2017-08-02T11:50:34.218Z,52.8
2017-08-02T11:51:36.329Z,52.5
2017-08-02T11:52:38.773Z,52.1
2017-08-02T11:53:40.864Z,52
2017-08-02T11:54:43.350Z,51.9
2017-08-02T11:55:45.456Z,51.8
2017-08-02T11:56:47.559Z,51.7
2017-08-02T11:57:49.668Z,51.5
2017-08-02T11:58:52.111Z,51.2
2017-08-02T11:59:54.208Z,51.2
2017-08-02T12:00:56.315Z,51.3
2017-08-02T12:01:58.440Z,51.1
2017-08-02T12:03:01.238Z,51
2017-08-02T12:04:03.364Z,50.7
2017-08-02T12:05:05.829Z,50.5
2017-08-02T12:06:07.935Z,50.3
2017-08-02T12:07:10.063Z,50.2
2017-08-02T12:08:12.856Z,50.3
2017-08-02T12:09:15.328Z,50.4
2017-08-02T12:10:17.773Z,50.2
2017-08-02T12:11:19.864Z,50.1
2017-08-02T12:12:21.996Z,50.2
2017-08-02T12:13:24.107Z,50.3
2017-08-02T12:14:26.555Z,50.2
2017-08-02T12:15:29.005Z,49.9
2017-08-02T12:16:31.115Z,49.7
2017-08-02T12:17:33.210Z,49.6
2017-08-02T12:18:35.322Z,49.5
2017-08-02T12:19:37.424Z,49.5
2017-08-02T12:20:39.861Z,49.4
2017-08-02T12:21:42.314Z,49.2
2017-08-02T12:22:44.457Z,48.9
2017-08-02T12:23:46.897Z,48.8
2017-08-02T12:24:49.013Z,48.7
2017-08-02T12:25:51.123Z,48.5
2017-08-02T12:26:53.235Z,48.4
2017-08-02T12:27:55.342Z,48.4
2017-08-02T12:28:57.791Z,48.6
2017-08-02T12:29:59.912Z,48.7
2017-08-02T12:31:02.008Z,48.6
2017-08-02T12:32:04.796Z,48.4
2017-08-02T12:33:07.253Z,48.3
2017-08-02T12:34:09.695Z,48.3
2017-08-02T12:35:12.155Z,48.5
2017-08-02T12:36:14.286Z,48.6
2017-08-02T12:37:16.738Z,48.5
2017-08-02T12:38:19.196Z,48.4
2017-08-02T12:39:22.128Z,48.4
2017-08-02T12:40:24.583Z,48.3
2017-08-02T12:41:27.443Z,48.2
2017-08-02T12:42:29.558Z,48.4
2017-08-02T12:43:31.695Z,48.5
2017-08-02T12:44:33.820Z,48.5
2017-08-02T12:45:35.926Z,48.6
2017-08-02T12:46:38.053Z,48.7
2017-08-02T12:47:41.018Z,48.7
2017-08-02T12:48:43.176Z,48.8
2017-08-02T12:49:45.324Z,48.9
2017-08-02T12:50:47.435Z,48.8
2017-08-02T12:51:49.923Z,48.7
2017-08-02T12:52:53.193Z,48.6
2017-08-02T12:53:55.352Z,48.5
2017-08-02T12:54:57.790Z,48.4
2017-08-02T12:55:59.907Z,48.3
2017-08-02T12:57:02.722Z,48
2017-08-02T12:58:05.607Z,47.8
2017-08-02T12:59:08.067Z,47.6
2017-08-02T13:00:10.522Z,47.4
2017-08-02T13:01:12.772Z,47.2
2017-08-02T13:02:21.131Z,47.2
2017-08-02T13:03:23.352Z,47.2
2017-08-02T13:04:25.473Z,47.3
2017-08-02T13:05:27.612Z,47.2
2017-08-02T13:06:30.406Z,47.2
2017-08-02T13:07:32.524Z,46.9
2017-08-02T13:08:34.985Z,46.4
2017-08-02T13:09:37.499Z,46.4
2017-08-02T13:10:39.703Z,46.4
2017-08-02T13:11:41.841Z,46.2
2017-08-02T13:12:44.674Z,46.2
2017-08-02T13:13:47.138Z,46.1
2017-08-02T13:14:49.381Z,46.2
2017-08-02T13:15:51.847Z,46.1
2017-08-02T13:16:53.955Z,45.8
2017-08-02T13:17:56.047Z,45.8
2017-08-02T13:18:58.222Z,46
2017-08-02T13:20:00.377Z,45.9
2017-08-02T13:21:02.735Z,45.9
2017-08-02T13:22:04.850Z,45.9
2017-08-02T13:23:06.996Z,45.9
2017-08-02T13:24:09.116Z,45.9
2017-08-02T13:25:11.207Z,45.7
2017-08-02T13:26:13.788Z,45.6
2017-08-02T13:27:15.963Z,45.3
2017-08-02T13:28:18.094Z,45.2
2017-08-02T13:29:20.556Z,45.2
2017-08-02T13:30:22.664Z,45
2017-08-02T13:31:24.767Z,44.9
2017-08-02T13:32:27.602Z,44.8
2017-08-02T13:33:29.708Z,44.8
2017-08-02T13:34:32.178Z,44.8
2017-08-02T13:35:34.984Z,44.8
2017-08-02T13:36:37.099Z,44.9
2017-08-02T13:37:39.222Z,44.9
2017-08-02T13:38:41.332Z,44.6
2017-08-02T13:39:43.453Z,44.4
2017-08-02T13:40:45.568Z,44.3
2017-08-02T13:41:47.670Z,44.4
2017-08-02T13:42:50.144Z,44.2
2017-08-02T13:43:52.328Z,44.2
2017-08-02T13:44:54.461Z,44.2
2017-08-02T13:45:56.562Z,44
2017-08-02T13:46:59.035Z,44
2017-08-02T13:48:01.491Z,43.9
2017-08-02T13:49:03.935Z,43.8
2017-08-02T13:50:06.483Z,43.9
2017-08-02T13:51:09.419Z,43.9
2017-08-02T13:52:11.596Z,43.9
2017-08-02T13:53:13.728Z,44
2017-08-02T13:54:16.171Z,43.9
2017-08-02T13:55:18.425Z,43.9
2017-08-02T13:56:21.054Z,43.9
2017-08-02T13:57:23.172Z,44
2017-08-02T13:58:25.347Z,43.8
2017-08-02T13:59:27.488Z,43.5
2017-08-02T14:00:29.582Z,43.5
2017-08-02T14:01:31.724Z,43.6
2017-08-02T14:02:34.178Z,43.5
2017-08-02T14:03:36.297Z,43.6
2017-08-02T14:04:38.768Z,43.7
2017-08-02T14:05:40.900Z,43.9
2017-08-02T14:06:43.365Z,44.2
2017-08-02T14:07:45.457Z,44.4
2017-08-02T14:08:47.905Z,44.4
2017-08-02T14:09:50.380Z,44.3
2017-08-02T14:10:52.480Z,44
2017-08-02T14:11:54.955Z,43.9
2017-08-02T14:12:57.410Z,43.9
2017-08-02T14:14:00.205Z,43.7
2017-08-02T14:15:02.672Z,43.8
2017-08-02T14:16:05.582Z,43.9
2017-08-02T14:17:08.037Z,43.7
2017-08-02T14:18:10.485Z,43.6
2017-08-02T14:19:12.593Z,43.7
2017-08-02T14:20:15.062Z,43.5
2017-08-02T14:21:17.367Z,43.6
2017-08-02T14:22:19.814Z,43.9
2017-08-02T14:23:22.867Z,43.9
2017-08-02T14:24:24.954Z,44.1
2017-08-02T14:25:27.210Z,44.4
2017-08-02T14:26:29.747Z,44.5
2017-08-02T14:27:31.869Z,44.5
2017-08-02T14:28:33.976Z,44.6
2017-08-02T14:29:36.070Z,44.8
2017-08-02T14:30:38.180Z,44.9
2017-08-02T14:31:40.655Z,45
2017-08-02T14:32:43.100Z,45.1
2017-08-02T14:33:45.233Z,45.1
2017-08-02T14:34:47.347Z,45.2
2017-08-02T14:35:53.019Z,45.1
2017-08-02T14:37:01.790Z,45.2
2017-08-02T14:38:17.513Z,45.1
2017-08-02T14:39:23.840Z,45.2
2017-08-02T14:40:30.618Z,45.3
2017-08-02T14:41:39.003Z,45.2
2017-08-02T14:42:47.763Z,45.2
2017-08-02T14:43:53.364Z,45.2
2017-08-02T14:44:55.471Z,45.3
2017-08-02T14:45:57.582Z,45.5
2017-08-02T14:46:59.702Z,45.7
2017-08-02T14:48:02.143Z,45.7
2017-08-02T14:49:04.932Z,45.9
2017-08-02T14:50:07.039Z,46.1
2017-08-02T14:51:09.159Z,46.3
2017-08-02T14:52:11.617Z,46.4
2017-08-02T14:53:13.721Z,46.5
2017-08-02T14:54:16.167Z,46.5
2017-08-02T14:55:18.605Z,46.6
2017-08-02T14:56:20.725Z,46.7
2017-08-02T14:57:22.838Z,46.9
2017-08-02T14:58:24.941Z,46.9
2017-08-02T14:59:27.047Z,47.1
2017-08-02T15:00:29.151Z,47.1
2017-08-02T15:01:31.596Z,47.2
2017-08-02T15:02:34.032Z,47.2
2017-08-02T15:03:36.152Z,47.2
2017-08-02T15:04:38.271Z,47.3
2017-08-02T15:05:41.051Z,47.3
2017-08-02T15:06:43.187Z,47.4
2017-08-02T15:07:45.291Z,47.4
2017-08-02T15:08:47.779Z,47.5
2017-08-02T15:09:49.892Z,47.6
2017-08-02T15:10:51.985Z,47.7
2017-08-02T15:11:54.096Z,47.8
2017-08-02T15:12:56.211Z,47.8
2017-08-02T15:13:58.656Z,47.8
2017-08-02T15:15:00.773Z,47.7
2017-08-02T15:16:03.548Z,47.9
2017-08-02T15:17:06.342Z,47.8
2017-08-02T15:18:08.802Z,47.8
2017-08-02T15:19:10.905Z,48
2017-08-02T15:20:12.998Z,47.9
2017-08-02T15:21:15.447Z,47.9
2017-08-02T15:22:17.897Z,47.9
2017-08-02T15:23:20.000Z,48
2017-08-02T15:24:22.097Z,47.9
2017-08-02T15:25:24.212Z,48
2017-08-02T15:26:26.314Z,48.1
2017-08-02T15:27:28.431Z,48
2017-08-02T15:28:31.224Z,48
2017-08-02T15:29:33.854Z,48.1
2017-08-02T15:30:35.961Z,48.2
2017-08-02T15:31:38.074Z,48.2
2017-08-02T15:32:40.169Z,48.4
2017-08-02T15:33:42.609Z,48.5
2017-08-02T15:34:44.705Z,48.7
2017-08-02T15:35:46.816Z,48.7
2017-08-02T15:36:48.929Z,48.7
2017-08-02T15:37:51.027Z,48.7
2017-08-02T15:38:53.159Z,48.8
2017-08-02T15:39:55.260Z,48.8
2017-08-02T15:40:57.362Z,48.7
2017-08-02T15:41:59.809Z,48.6
2017-08-02T15:43:01.901Z,48.7
2017-08-02T15:44:04.006Z,48.8
2017-08-02T15:45:06.118Z,48.8
2017-08-02T15:46:08.220Z,48.9
2017-08-02T15:47:10.356Z,48.8
2017-08-02T15:48:12.786Z,48.9
2017-08-02T15:49:14.888Z,48.9
2017-08-02T15:50:17.023Z,48.9
2017-08-02T15:51:20.142Z,49.1
2017-08-02T15:52:22.249Z,49
2017-08-02T15:53:24.397Z,49
2017-08-02T15:54:26.856Z,49
2017-08-02T15:55:28.971Z,49
2017-08-02T15:56:31.055Z,49
2017-08-02T15:57:33.184Z,49
2017-08-02T15:58:35.619Z,49.1
2017-08-02T15:59:38.124Z,49.1
2017-08-02T16:00:40.244Z,49.1
2017-08-02T16:01:42.683Z,49.2
2017-08-02T16:02:44.805Z,49.2
2017-08-02T16:03:46.912Z,49.3
2017-08-02T16:04:49.369Z,49.3
2017-08-02T16:05:51.480Z,49.5
2017-08-02T16:06:53.930Z,49.6
2017-08-02T16:07:56.025Z,49.7
2017-08-02T16:08:58.158Z,49.8
2017-08-02T16:10:00.270Z,49.8
2017-08-02T16:11:02.374Z,49.7
2017-08-02T16:12:04.447Z,49.8
2017-08-02T16:13:06.897Z,50
2017-08-02T16:14:09.024Z,50
2017-08-02T16:15:11.461Z,50
2017-08-02T16:16:13.905Z,50.1
2017-08-02T16:17:16.010Z,50.2
2017-08-02T16:18:18.469Z,50.3
2017-08-02T16:19:20.905Z,50.4
2017-08-02T16:20:23.373Z,50.3
2017-08-02T16:21:25.487Z,50.4
2017-08-02T16:22:27.588Z,50.5
2017-08-02T16:23:30.033Z,50.7
2017-08-02T16:24:32.131Z,50.8
2017-08-02T16:25:34.244Z,50.8
2017-08-02T16:26:36.350Z,50.9
2017-08-02T16:27:38.466Z,51
2017-08-02T16:28:41.296Z,51.1
2017-08-02T16:29:43.748Z,51.1
2017-08-02T16:30:46.168Z,51
2017-08-02T16:31:48.603Z,51
2017-08-02T16:32:50.718Z,51.1
2017-08-02T16:33:52.820Z,51.1
2017-08-02T16:34:54.924Z,51.1
2017-08-02T16:35:57.010Z,51.2
2017-08-02T16:36:59.101Z,51.2
2017-08-02T16:38:01.180Z,51.2
2017-08-02T16:39:03.626Z,51.2
2017-08-02T16:40:06.088Z,51.3
2017-08-02T16:41:08.184Z,51.3
2017-08-02T16:42:10.272Z,51.4
2017-08-02T16:43:13.060Z,51.4
2017-08-02T16:44:15.167Z,51.6
2017-08-02T16:45:17.277Z,51.7
2017-08-02T16:46:19.364Z,51.7
2017-08-02T16:47:21.465Z,51.9
2017-08-02T16:48:23.580Z,52
2017-08-02T16:49:25.680Z,52
2017-08-02T16:50:27.784Z,52.1
2017-08-02T16:51:30.232Z,52.1
2017-08-02T16:52:32.307Z,52.1
2017-08-02T16:53:35.108Z,52.2
2017-08-02T16:54:37.204Z,52.2
2017-08-02T16:55:39.308Z,52.3
2017-08-02T16:56:41.771Z,52.4
2017-08-02T16:57:43.881Z,52.4
2017-08-02T16:58:46.320Z,52.4
2017-08-02T16:59:48.405Z,52.4
2017-08-02T17:00:50.504Z,52.3
2017-08-02T17:01:53.310Z,52
2017-08-02T17:02:55.400Z,51.8
2017-08-02T17:03:57.520Z,51.6
2017-08-02T17:04:59.950Z,51.5
2017-08-02T17:06:02.067Z,51.4
2017-08-02T17:07:04.536Z,51.5
2017-08-02T17:08:06.977Z,51.5
2017-08-02T17:09:09.778Z,51.5
2017-08-02T17:10:11.947Z,51.5
2017-08-02T17:11:14.392Z,51.6
2017-08-02T17:12:16.520Z,51.5
2017-08-02T17:13:18.603Z,51.5
2017-08-02T17:14:20.713Z,51.6
2017-08-02T17:15:22.825Z,51.7
2017-08-02T17:16:25.259Z,51.8
2017-08-02T17:17:27.370Z,51.8
2017-08-02T17:18:29.468Z,51.9
2017-08-02T17:19:31.593Z,52
2017-08-02T17:20:34.048Z,52
2017-08-02T17:21:36.136Z,52
2017-08-02T17:22:38.584Z,51.9
2017-08-02T17:23:40.689Z,52
2017-08-02T17:24:42.785Z,52
2017-08-02T17:25:44.918Z,52
2017-08-02T17:26:47.018Z,52
2017-08-02T17:27:49.468Z,52.1
2017-08-02T17:28:51.575Z,52.1
2017-08-02T17:29:54.027Z,52.2
2017-08-02T17:30:56.132Z,52.2
2017-08-02T17:31:58.230Z,52.3
2017-08-02T17:33:00.907Z,52.4
2017-08-02T17:34:03.975Z,52.4
2017-08-02T17:35:06.747Z,52.4
2017-08-02T17:36:09.892Z,52.3
2017-08-02T17:37:12.603Z,52.2
2017-08-02T17:38:15.733Z,52
2017-08-02T17:39:18.566Z,52
2017-08-02T17:40:20.666Z,52
2017-08-02T17:41:22.769Z,51.7
2017-08-02T17:42:25.211Z,51.6
2017-08-02T17:43:27.320Z,51.3
2017-08-02T17:44:29.473Z,51
2017-08-02T17:45:31.914Z,50.6
2017-08-02T17:46:34.695Z,50.3
2017-08-02T17:47:36.797Z,50
2017-08-02T17:48:39.246Z,49.7
2017-08-02T17:49:41.371Z,49.4
2017-08-02T17:50:43.480Z,49.1
2017-08-02T17:51:45.596Z,48.8
2017-08-02T17:52:47.703Z,48.7
2017-08-02T17:53:49.785Z,48.4
2017-08-02T17:54:52.263Z,48
2017-08-02T17:55:54.375Z,47.8
2017-08-02T17:56:56.818Z,47.5
2017-08-02T17:57:59.266Z,47.3
2017-08-02T17:59:01.383Z,47.3
2017-08-02T18:00:03.808Z,47.4
2017-08-02T18:01:05.922Z,47.6
2017-08-02T18:02:08.619Z,47.9
2017-08-02T18:03:11.428Z,48.1
2017-08-02T18:04:13.909Z,48.5
2017-08-02T18:05:16.018Z,48.8
2017-08-02T18:06:18.145Z,49.1
2017-08-02T18:07:20.598Z,49.3
2017-08-02T18:08:23.378Z,49.6
2017-08-02T18:09:25.496Z,49.9
2017-08-02T18:10:27.930Z,50.3
2017-08-02T18:11:30.036Z,50.5
2017-08-02T18:12:32.839Z,50.7
2017-08-02T18:13:35.323Z,51
2017-08-02T18:14:37.774Z,51.2
2017-08-02T18:15:39.868Z,51.4
2017-08-02T18:16:41.986Z,51.6
2017-08-02T18:17:45.120Z,51.7
2017-08-02T18:18:47.218Z,51.9
2017-08-02T18:19:49.336Z,52.1
2017-08-02T18:20:51.436Z,52.2
2017-08-02T18:21:53.882Z,52.3
2017-08-02T18:22:55.989Z,52.4
2017-08-02T18:23:58.087Z,52.5
2017-08-02T18:25:00.220Z,52.8
2017-08-02T18:26:02.651Z,52.8
2017-08-02T18:27:05.103Z,52.9
2017-08-02T18:28:07.208Z,52.9
2017-08-02T18:29:09.637Z,53
2017-08-02T18:30:11.757Z,53.1
2017-08-02T18:31:14.544Z,53.1
2017-08-02T18:32:16.649Z,53.2
2017-08-02T18:33:19.108Z,53.2
2017-08-02T18:34:21.540Z,53.3
2017-08-02T18:35:24.013Z,53.3
2017-08-02T18:36:27.161Z,53.5
2017-08-02T18:37:29.260Z,53.5
2017-08-02T18:38:32.028Z,53.6
2017-08-02T18:39:34.149Z,53.7
2017-08-02T18:40:36.593Z,53.8
2017-08-02T18:41:38.723Z,53.9
2017-08-02T18:42:40.816Z,53.9
2017-08-02T18:43:43.260Z,54
2017-08-02T18:44:45.370Z,54.1
2017-08-02T18:45:47.848Z,54.2
2017-08-02T18:46:50.679Z,54.3
2017-08-02T18:47:52.780Z,54.4
2017-08-02T18:48:54.892Z,54.5
2017-08-02T18:49:56.995Z,54.6
2017-08-02T18:50:59.430Z,54.8
2017-08-02T18:52:01.894Z,54.8
2017-08-02T18:53:04.004Z,54.8
2017-08-02T18:54:06.446Z,54.8
2017-08-02T18:55:08.540Z,54.8
2017-08-02T18:56:10.645Z,54.8
2017-08-02T18:57:13.453Z,54.8
2017-08-02T18:58:15.884Z,54.7
2017-08-02T18:59:18.323Z,54.7
2017-08-02T19:00:20.764Z,54.7
2017-08-02T19:01:23.899Z,54.7
2017-08-02T19:02:26.019Z,54.7
2017-08-02T19:03:28.125Z,54.7
2017-08-02T19:04:30.209Z,54.7
2017-08-02T19:05:32.306Z,54.6
2017-08-02T19:06:34.380Z,54.5
2017-08-02T19:07:37.174Z,54.6
2017-08-02T19:08:39.606Z,54.6
2017-08-02T19:09:41.711Z,54.8
2017-08-02T19:10:43.810Z,54.9
2017-08-02T19:11:45.922Z,55
2017-08-02T19:12:48.370Z,55
2017-08-02T19:13:50.477Z,55.1
2017-08-02T19:14:52.902Z,55.2
2017-08-02T19:15:55.008Z,55.2
2017-08-02T19:16:57.148Z,55.2
2017-08-02T19:17:59.251Z,55.1
2017-08-02T19:19:01.340Z,55.2
2017-08-02T19:20:03.790Z,55.2
2017-08-02T19:21:06.220Z,55.3
2017-08-02T19:22:08.673Z,55.3
2017-08-02T19:23:10.775Z,55.2
2017-08-02T19:24:13.217Z,55.2
2017-08-02T19:25:15.314Z,55.3
2017-08-02T19:26:17.388Z,55.4
2017-08-02T19:27:19.487Z,55.5
2017-08-02T19:28:21.581Z,55.6
2017-08-02T19:29:24.042Z,55.6
2017-08-02T19:30:26.842Z,55.7
2017-08-02T19:31:28.917Z,55.7
2017-08-02T19:32:31.049Z,55.9
2017-08-02T19:33:33.152Z,55.9
2017-08-02T19:34:35.244Z,56
2017-08-02T19:35:37.676Z,56
2017-08-02T19:36:39.771Z,56
2017-08-02T19:37:41.870Z,56.1
2017-08-02T19:38:44.292Z,56.1
2017-08-02T19:39:46.452Z,56.2
2017-08-02T19:40:48.550Z,56.2
2017-08-02T19:41:50.635Z,56.2
2017-08-02T19:42:53.072Z,56.3
2017-08-02T19:43:55.181Z,56.3
2017-08-02T19:44:57.279Z,56.3
2017-08-02T19:45:59.361Z,56.3
2017-08-02T19:47:01.790Z,56.4
2017-08-02T19:48:03.913Z,56.4
2017-08-02T19:49:05.993Z,56.4
2017-08-02T19:50:08.092Z,56.4
2017-08-02T19:51:10.520Z,56.4
2017-08-02T19:52:12.944Z,56.5
2017-08-02T19:53:15.045Z,56.5
2017-08-02T19:54:17.472Z,56.5